RPVP

Puerto Princesa Airport

Puerto Princesa City, Philippines
TAF RPVP 211700Z 2118/2218 18006KT 9999 FEW019 SCT080 BKN240 TEMPO 2118/2124 29008KT 9000 -TSRA FEW017CB SCT019 OVC080
Issued Valid From Valid To
Jun-21 @ 17:00 UTC
(an hour ago)
Jun-21 @ 18:00 UTC
(12 minutes ago)
Jun-22 @ 18:00 UTC
(in 24 hours)
Jun-21 @ 18:00 to Jun-22 @ 18:00
TAF RPVP 211700Z 2118/2218 18006KT 9999 FEW019 SCT080 BKN240
Wind Visibility Clouds
180° at 6 knots 10,000+ meters
  • Few at 1,900' AGL
  • Scattered at 8,000' AGL
  • Broken at 24,000' AGL
Temporary Jun-21 @ 18:00 to Jun-22 @ 00:00
TEMPO 2118/2124 29008KT 9000 -TSRA FEW017CB SCT019 OVC080
Wind Visibility Clouds Conditions
290° at 8 knots 8,996 meters
  • Few at 1,700' AGL
  • Scattered at 1,900' AGL
  • Overcast at 8,000' AGL
  • Light Thunderstorm
  • Light Rain
TAF RPVP 211700Z 2118/2218 18006KT 9999 FEW019 SCT080 BKN240 TEMPO 2118/2124 29008KT 9000 -TSRA FEW017CB SCT019 OVC080
Issued Jun-21 @ 17:00 UTC
(an hour ago)
Valid From Jun-21 @ 18:00 UTC
(12 minutes ago)
Valid To Jun-22 @ 18:00 UTC
(in 24 hours)
Jun-21 @ 18:00 - Jun-22 @ 18:00
Wind Visibility
180° at 6 knots 10,000+ meters
Clouds
  • Few at 1,900' AGL
  • Scattered at 8,000' AGL
  • Broken at 24,000' AGL
Temporary Jun-21 @ 18:00 - Jun-22 @ 00:00
Wind Visibility
290° at 8 knots 8,996 meters
Clouds
  • Few at 1,700' AGL
  • Scattered at 1,900' AGL
  • Overcast at 8,000' AGL
Conditions
  • Light Thunderstorm
  • Light Rain